createdAt,value
2019-03-21T00:01:53.044Z,10.00
2019-03-21T00:04:26.143Z,10.10
2019-03-21T00:06:59.051Z,10.10
2019-03-21T00:09:32.082Z,10.10
2019-03-21T00:12:06.505Z,10.10
2019-03-21T00:14:54.773Z,10.10
2019-03-21T00:17:30.406Z,10.10
2019-03-21T00:20:04.886Z,10.10
2019-03-21T00:22:37.632Z,10.10
2019-03-21T00:25:11.728Z,10.20
2019-03-21T00:27:44.611Z,10.20
2019-03-21T00:30:18.733Z,10.20
2019-03-21T00:32:51.849Z,10.20
2019-03-21T00:35:25.309Z,10.10
2019-03-21T00:37:58.507Z,10.10
2019-03-21T00:40:33.846Z,10.10
2019-03-21T00:43:08.112Z,10.10
2019-03-21T00:45:41.297Z,10.20
2019-03-21T00:48:15.496Z,10.20
2019-03-21T00:50:48.545Z,10.10
2019-03-21T00:53:21.374Z,10.10
2019-03-21T00:55:54.176Z,10.00
2019-03-21T00:58:27.174Z,10.10
2019-03-21T01:01:00.328Z,10.10
2019-03-21T01:03:33.061Z,10.20
2019-03-21T01:06:05.974Z,10.10
2019-03-21T01:08:38.712Z,10.10
2019-03-21T01:11:11.549Z,10.00
2019-03-21T01:13:44.837Z,10.10
2019-03-21T01:16:17.745Z,10.10
2019-03-21T01:18:50.881Z,10.10
2019-03-21T01:21:23.698Z,10.00
2019-03-21T01:23:56.494Z,10.00
2019-03-21T01:26:29.345Z,10.00
2019-03-21T01:29:02.453Z,10.00
2019-03-21T01:31:35.239Z,10.00
2019-03-21T01:34:08.080Z,10.00
2019-03-21T01:36:40.928Z,10.10
2019-03-21T01:39:13.931Z,10.10
2019-03-21T01:41:46.751Z,10.10
2019-03-21T01:44:19.409Z,10.00
2019-03-21T01:46:52.295Z,10.00
2019-03-21T01:49:25.304Z,10.00
2019-03-21T01:51:57.950Z,10.00
2019-03-21T01:54:30.657Z,10.00
2019-03-21T01:57:03.424Z,10.00
2019-03-21T01:59:36.185Z,10.00
2019-03-21T02:02:09.063Z,10.00
2019-03-21T02:04:41.775Z,10.10
2019-03-21T02:07:14.566Z,10.10
2019-03-21T02:09:47.476Z,10.10
2019-03-21T02:12:20.391Z,10.10
2019-03-21T02:14:53.348Z,10.00
2019-03-21T02:17:26.102Z,10.00
2019-03-21T02:19:59.013Z,10.00
2019-03-21T02:22:32.036Z,10.00
2019-03-21T02:25:07.828Z,10.10
2019-03-21T02:27:40.765Z,10.00
2019-03-21T02:30:16.228Z,10.20
2019-03-21T02:32:51.164Z,10.30
2019-03-21T02:35:24.175Z,10.20
2019-03-21T02:37:57.581Z,10.20
2019-03-21T02:40:30.473Z,10.30
2019-03-21T02:43:03.494Z,10.30
2019-03-21T02:45:36.522Z,10.30
2019-03-21T02:48:09.969Z,10.30
2019-03-21T02:50:43.310Z,10.30
2019-03-21T02:53:16.339Z,10.20
2019-03-21T02:55:52.664Z,10.20
2019-03-21T02:58:25.569Z,10.20
2019-03-21T03:01:00.193Z,10.10
2019-03-21T03:03:33.482Z,10.20
2019-03-21T03:06:06.970Z,10.20
2019-03-21T03:08:41.416Z,10.10
2019-03-21T03:11:19.478Z,10.20
2019-03-21T03:13:53.189Z,10.20
2019-03-21T03:16:26.652Z,10.20
2019-03-21T03:18:59.825Z,10.20
2019-03-21T03:21:32.831Z,10.20
2019-03-21T03:24:06.873Z,10.10
2019-03-21T03:26:41.685Z,10.20
2019-03-21T03:29:15.371Z,10.20
2019-03-21T03:31:51.389Z,10.20
2019-03-21T03:34:24.467Z,10.10
2019-03-21T03:37:00.443Z,10.20
2019-03-21T03:39:33.253Z,10.20
2019-03-21T03:42:06.454Z,10.10
2019-03-21T03:44:39.784Z,10.10
2019-03-21T03:47:12.884Z,10.10
2019-03-21T03:49:45.814Z,10.20
2019-03-21T03:52:20.789Z,10.20
2019-03-21T03:54:53.731Z,10.20
2019-03-21T03:57:28.980Z,10.20
2019-03-21T04:00:01.812Z,10.20
2019-03-21T04:02:34.982Z,10.20
2019-03-21T04:05:08.260Z,10.20
2019-03-21T04:07:41.189Z,10.20
2019-03-21T04:10:16.868Z,10.30
2019-03-21T04:12:49.786Z,10.30
2019-03-21T04:15:22.662Z,10.30
2019-03-21T04:17:55.548Z,10.30
2019-03-21T04:20:29.682Z,10.40
2019-03-21T04:23:02.676Z,10.20
2019-03-21T04:25:47.501Z,10.10
2019-03-21T04:28:20.284Z,10.20
2019-03-21T04:30:53.045Z,10.30
2019-03-21T04:33:25.716Z,10.20
2019-03-21T04:35:58.721Z,10.20
2019-03-21T04:38:31.397Z,10.20
2019-03-21T04:41:04.231Z,10.30
2019-03-21T04:43:37.005Z,10.40
2019-03-21T04:46:09.917Z,10.40
2019-03-21T04:48:43.364Z,10.30
2019-03-21T04:51:16.570Z,10.20
2019-03-21T04:53:53.305Z,10.30
2019-03-21T04:56:25.594Z,10.20
2019-03-21T04:58:58.653Z,10.30
2019-03-21T05:01:31.389Z,10.20
2019-03-21T05:04:04.445Z,10.30
2019-03-21T05:06:37.142Z,10.20
2019-03-21T05:09:13.476Z,10.20
2019-03-21T05:11:46.409Z,10.20
2019-03-21T05:14:21.530Z,10.20
2019-03-21T05:16:54.587Z,10.20
2019-03-21T05:19:27.381Z,10.20
2019-03-21T05:22:00.381Z,10.30
2019-03-21T05:24:33.268Z,10.30
2019-03-21T05:27:06.596Z,10.20
2019-03-21T05:29:39.381Z,10.20
2019-03-21T05:32:12.520Z,10.30
2019-03-21T05:34:45.544Z,10.30
2019-03-21T05:37:18.478Z,10.30
2019-03-21T05:39:51.564Z,10.30
2019-03-21T05:42:25.115Z,10.20
2019-03-21T05:44:58.463Z,10.30
2019-03-21T05:47:31.979Z,10.30
2019-03-21T05:50:06.019Z,10.30
2019-03-21T05:52:38.906Z,10.30
2019-03-21T05:55:11.879Z,10.30
2019-03-21T05:57:46.208Z,10.30
2019-03-21T06:00:26.828Z,10.30
2019-03-21T06:03:00.071Z,10.30
2019-03-21T06:05:32.913Z,10.30
2019-03-21T06:08:11.818Z,10.30
2019-03-21T06:10:45.646Z,10.30
2019-03-21T06:13:29.870Z,10.50
2019-03-21T06:16:08.072Z,10.40
2019-03-21T06:18:55.187Z,10.50
2019-03-21T06:22:08.417Z,10.40
2019-03-21T06:25:29.036Z,10.40
2019-03-21T06:28:02.132Z,10.40
2019-03-21T06:30:35.243Z,10.50
2019-03-21T06:33:08.531Z,10.50
2019-03-21T06:35:41.301Z,10.40
2019-03-21T06:38:14.185Z,10.40
2019-03-21T06:40:47.392Z,10.50
2019-03-21T06:43:20.349Z,10.50
2019-03-21T06:45:53.405Z,10.50
2019-03-21T06:48:26.128Z,10.50
2019-03-21T06:50:59.051Z,10.60
2019-03-21T06:53:31.698Z,10.60
2019-03-21T06:56:05.081Z,10.60
2019-03-21T06:58:40.096Z,10.60
2019-03-21T07:01:15.036Z,10.50
2019-03-21T07:03:48.283Z,10.50
2019-03-21T07:06:21.626Z,10.50
2019-03-21T07:08:54.802Z,10.60
2019-03-21T07:11:29.160Z,10.60
2019-03-21T07:14:02.481Z,10.60
2019-03-21T07:16:38.609Z,10.70
2019-03-21T07:19:11.668Z,10.70
2019-03-21T07:21:46.240Z,10.90
2019-03-21T07:24:19.501Z,10.80
2019-03-21T07:26:53.079Z,10.80
2019-03-21T07:29:26.138Z,10.60
2019-03-21T07:32:03.022Z,10.60
2019-03-21T07:34:36.718Z,10.60
2019-03-21T07:37:09.966Z,10.50
2019-03-21T07:39:43.304Z,10.60
2019-03-21T07:42:16.604Z,10.50
2019-03-21T07:44:50.143Z,10.60
2019-03-21T07:47:23.477Z,10.60
2019-03-21T07:49:56.798Z,10.60
2019-03-21T07:52:30.418Z,10.60
2019-03-21T07:55:06.835Z,10.50
2019-03-21T07:57:39.830Z,10.60
2019-03-21T08:00:13.215Z,10.50
2019-03-21T08:02:46.064Z,10.60
2019-03-21T08:05:18.926Z,10.70
2019-03-21T08:07:51.909Z,10.70
2019-03-21T08:10:24.774Z,10.60
2019-03-21T08:12:57.963Z,10.70
2019-03-21T08:15:30.914Z,10.60
2019-03-21T08:18:03.738Z,10.50
2019-03-21T08:20:36.574Z,10.50
2019-03-21T08:23:09.739Z,10.50
2019-03-21T08:25:42.742Z,10.60
2019-03-21T08:28:15.801Z,10.60
2019-03-21T08:31:25.981Z,10.60
2019-03-21T08:33:58.861Z,10.60
2019-03-21T08:36:31.673Z,10.60
2019-03-21T08:39:07.091Z,10.60
2019-03-21T08:41:39.844Z,10.70
2019-03-21T08:44:12.596Z,10.70
2019-03-21T08:46:45.363Z,10.60
2019-03-21T08:49:18.219Z,10.70
2019-03-21T08:51:51.098Z,10.70
2019-03-21T08:54:24.268Z,10.70
2019-03-21T08:56:57.178Z,10.70
2019-03-21T08:59:29.798Z,10.70
2019-03-21T09:02:02.904Z,10.70
2019-03-21T09:04:36.143Z,10.70
2019-03-21T09:07:09.228Z,10.80
2019-03-21T09:09:42.115Z,10.80
2019-03-21T09:14:47.846Z,10.80
2019-03-21T09:17:20.727Z,11.00
2019-03-21T09:32:40.532Z,11.10
2019-03-21T09:35:13.481Z,11.30
2019-03-21T09:37:46.478Z,11.30
2019-03-21T09:40:19.677Z,11.30
2019-03-21T09:45:25.813Z,11.40
2019-03-21T09:47:58.737Z,11.40
2019-03-21T09:50:31.538Z,11.40
2019-03-21T09:53:04.601Z,11.40
2019-03-21T09:55:37.795Z,11.30
2019-03-21T09:58:10.846Z,11.20
2019-03-21T10:00:43.965Z,11.30
2019-03-21T10:03:17.070Z,11.30
2019-03-21T10:05:50.617Z,11.40
2019-03-21T10:08:23.669Z,11.50
2019-03-21T10:10:57.027Z,11.60
2019-03-21T10:13:30.273Z,11.70
2019-03-21T10:16:03.753Z,11.70
2019-03-21T10:18:36.701Z,11.70
2019-03-21T10:21:10.610Z,11.60
2019-03-21T10:23:44.854Z,11.70
2019-03-21T10:26:17.856Z,11.90
2019-03-21T10:28:50.946Z,12.10
2019-03-21T10:31:24.112Z,12.10
2019-03-21T10:33:57.054Z,11.90
2019-03-21T10:36:30.684Z,11.90
2019-03-21T10:39:06.298Z,12.00
2019-03-21T10:41:39.355Z,11.70
2019-03-21T10:44:12.648Z,11.60
2019-03-21T10:46:45.450Z,11.80
2019-03-21T10:49:19.033Z,11.70
2019-03-21T10:51:55.208Z,11.70
2019-03-21T10:54:27.008Z,11.90
2019-03-21T10:57:01.830Z,11.80
2019-03-21T10:59:35.021Z,11.90
2019-03-21T11:02:08.916Z,12.00
2019-03-21T11:04:42.422Z,12.10
2019-03-21T11:07:14.664Z,12.00
2019-03-21T11:09:47.549Z,11.80
2019-03-21T11:12:20.975Z,11.80
2019-03-21T11:14:54.664Z,12.00
2019-03-21T11:17:27.885Z,11.80
2019-03-21T11:20:01.633Z,11.90
2019-03-21T11:22:34.957Z,12.00
2019-03-21T11:25:08.266Z,11.80
2019-03-21T11:27:41.165Z,11.90
2019-03-21T11:30:19.336Z,12.00
2019-03-21T11:32:53.002Z,11.90
2019-03-21T11:35:26.555Z,11.80
2019-03-21T11:37:59.790Z,11.80
2019-03-21T11:40:33.190Z,12.00
2019-03-21T11:43:07.804Z,12.00
2019-03-21T11:45:41.149Z,11.90
2019-03-21T11:48:15.530Z,12.00
2019-03-21T11:50:49.031Z,11.90
2019-03-21T11:53:22.248Z,12.00
2019-03-21T11:55:55.802Z,12.10
2019-03-21T11:58:29.101Z,12.10
2019-03-21T12:01:02.597Z,12.20
2019-03-21T12:03:35.815Z,12.20
2019-03-21T12:06:09.538Z,12.10
2019-03-21T12:08:43.518Z,12.10
2019-03-21T12:11:21.168Z,12.10
2019-03-21T12:13:54.391Z,12.00
2019-03-21T12:16:27.876Z,12.00
2019-03-21T12:19:02.828Z,12.10
2019-03-21T12:21:37.629Z,12.00
2019-03-21T12:24:11.652Z,12.00
2019-03-21T12:26:44.844Z,12.00
2019-03-21T12:29:18.221Z,12.00
2019-03-21T12:31:51.702Z,12.10
2019-03-21T12:34:25.557Z,12.10
2019-03-21T12:36:59.065Z,12.30
2019-03-21T12:39:33.001Z,12.40
2019-03-21T12:42:06.164Z,12.30
2019-03-21T12:44:39.955Z,12.30
2019-03-21T12:47:13.392Z,12.10
2019-03-21T12:49:47.322Z,12.00
2019-03-21T12:52:23.018Z,12.00
2019-03-21T12:54:56.807Z,12.00
2019-03-21T12:57:30.116Z,12.00
2019-03-21T13:00:05.374Z,11.90
2019-03-21T13:02:43.529Z,12.00
2019-03-21T13:05:25.368Z,12.00
2019-03-21T13:07:58.958Z,11.90
2019-03-21T13:10:32.066Z,12.10
2019-03-21T13:13:05.517Z,12.10
2019-03-21T13:15:39.005Z,12.10
2019-03-21T13:18:12.179Z,12.10
2019-03-21T13:20:45.172Z,12.10
2019-03-21T13:23:18.991Z,12.10
2019-03-21T13:25:57.388Z,12.10
2019-03-21T13:28:30.517Z,12.10
2019-03-21T13:31:03.718Z,12.10
2019-03-21T13:33:37.055Z,12.10
2019-03-21T13:36:12.422Z,12.30
2019-03-21T13:38:45.774Z,12.30
2019-03-21T13:41:19.761Z,12.20
2019-03-21T13:43:54.022Z,12.10
2019-03-21T13:46:27.434Z,12.10
2019-03-21T13:49:00.520Z,12.20
2019-03-21T13:51:34.444Z,12.20
2019-03-21T13:54:08.919Z,12.20
2019-03-21T13:56:42.956Z,12.20
2019-03-21T13:59:19.033Z,12.20
2019-03-21T14:02:01.603Z,12.20
2019-03-21T14:04:35.444Z,12.30
2019-03-21T14:07:08.950Z,12.30
2019-03-21T14:09:43.894Z,12.40
2019-03-21T14:12:17.437Z,12.40
2019-03-21T14:14:50.525Z,12.50
2019-03-21T14:17:23.678Z,12.50
2019-03-21T14:19:57.472Z,12.40
2019-03-21T14:22:32.370Z,12.50
2019-03-21T14:25:08.770Z,12.50
2019-03-21T14:27:43.688Z,12.50
2019-03-21T14:30:17.992Z,12.40
2019-03-21T14:32:51.501Z,12.40
2019-03-21T14:35:25.257Z,12.40
2019-03-21T14:38:02.054Z,12.50
2019-03-21T14:40:38.041Z,12.50
2019-03-21T14:43:13.371Z,12.50
2019-03-21T14:45:46.684Z,12.60
2019-03-21T14:48:20.298Z,12.70
2019-03-21T14:50:53.836Z,12.60
2019-03-21T14:53:29.037Z,12.50
2019-03-21T14:56:01.756Z,12.50
2019-03-21T14:58:35.387Z,12.60
2019-03-21T15:01:08.676Z,12.50
2019-03-21T15:06:14.957Z,12.40
2019-03-21T15:08:50.232Z,12.50
2019-03-21T15:11:23.834Z,12.50
2019-03-21T15:13:58.065Z,12.50
2019-03-21T15:16:31.663Z,12.50
2019-03-21T15:19:05.122Z,12.40
2019-03-21T15:21:38.656Z,12.40
2019-03-21T15:24:12.460Z,12.50
2019-03-21T15:26:45.591Z,12.70
2019-03-21T15:29:19.548Z,12.70
2019-03-21T15:31:52.614Z,12.70
2019-03-21T15:34:28.662Z,12.60
2019-03-21T15:37:03.770Z,12.60
2019-03-21T15:39:37.328Z,12.60
2019-03-21T15:42:10.240Z,12.50
2019-03-21T15:44:43.267Z,12.60
2019-03-21T15:47:19.718Z,12.60
2019-03-21T15:49:57.495Z,12.60
2019-03-21T15:52:30.543Z,12.70
2019-03-21T15:55:03.797Z,12.70
2019-03-21T15:57:37.329Z,12.60
2019-03-21T16:00:16.401Z,12.60
2019-03-21T16:02:49.716Z,12.50
2019-03-21T16:05:22.711Z,12.60
2019-03-21T16:07:56.042Z,12.70
2019-03-21T16:10:30.012Z,12.80
2019-03-21T16:13:03.456Z,12.70
2019-03-21T16:15:36.828Z,12.60
2019-03-21T16:18:09.812Z,12.60
2019-03-21T16:20:43.003Z,12.60
2019-03-21T16:23:19.477Z,12.70
2019-03-21T16:25:59.529Z,12.60
2019-03-21T16:28:37.123Z,12.60
2019-03-21T16:31:10.767Z,12.70
2019-03-21T16:33:46.615Z,12.70
2019-03-21T16:36:23.352Z,12.60
2019-03-21T16:38:56.256Z,12.60
2019-03-21T16:41:29.310Z,12.60
2019-03-21T16:44:02.255Z,12.60
2019-03-21T16:46:35.425Z,12.60
2019-03-21T16:49:09.495Z,12.50
2019-03-21T16:51:42.748Z,12.50
2019-03-21T16:54:17.337Z,12.40
2019-03-21T16:56:50.701Z,12.40
2019-03-21T16:59:23.874Z,12.40
2019-03-21T17:01:56.822Z,12.40
2019-03-21T17:04:30.064Z,12.40
2019-03-21T17:07:03.411Z,12.30
2019-03-21T17:09:36.317Z,12.30
2019-03-21T17:14:55.660Z,12.30
2019-03-21T17:17:40.717Z,12.20
2019-03-21T17:20:25.922Z,12.20
2019-03-21T17:23:10.823Z,12.20
2019-03-21T17:25:56.167Z,12.10
2019-03-21T17:28:41.102Z,12.20
2019-03-21T17:31:26.205Z,12.10
2019-03-21T17:34:11.129Z,12.10
2019-03-21T17:36:56.028Z,12.10
2019-03-21T17:39:41.261Z,12.00
2019-03-21T17:42:26.413Z,12.10
2019-03-21T17:45:11.359Z,12.00
2019-03-21T17:47:56.240Z,12.00
2019-03-21T17:50:41.181Z,12.00
2019-03-21T17:53:26.128Z,12.00
2019-03-21T17:55:59.339Z,12.00
2019-03-21T17:58:32.440Z,12.10
2019-03-21T18:01:24.797Z,12.00
2019-03-21T18:04:10.400Z,12.00
2019-03-21T18:06:55.140Z,12.00
2019-03-21T18:09:40.110Z,12.00
2019-03-21T18:12:13.116Z,11.90
2019-03-21T18:14:58.280Z,11.90
2019-03-21T18:17:43.578Z,12.00
2019-03-21T18:20:16.891Z,12.00
2019-03-21T18:23:09.053Z,11.80
2019-03-21T18:28:41.460Z,11.80
2019-03-21T18:31:27.299Z,11.80
2019-03-21T18:34:12.347Z,11.80
2019-03-21T18:36:57.553Z,11.80
2019-03-21T18:39:43.148Z,11.80
2019-03-21T18:42:28.666Z,11.80
2019-03-21T18:45:14.111Z,11.80
2019-03-21T18:47:59.094Z,11.70
2019-03-21T18:50:43.976Z,11.70
2019-03-21T18:53:28.981Z,11.60
2019-03-21T18:58:59.999Z,11.60
2019-03-21T19:01:33.177Z,11.60
2019-03-21T19:04:25.693Z,11.60
2019-03-21T19:07:11.122Z,11.50
2019-03-21T19:09:44.461Z,11.50
2019-03-21T19:12:32.326Z,11.50
2019-03-21T19:15:17.201Z,11.40
2019-03-21T19:18:02.103Z,11.40
2019-03-21T19:20:47.220Z,11.40
2019-03-21T19:23:33.348Z,11.50
2019-03-21T19:26:18.848Z,11.40
2019-03-21T19:29:04.313Z,11.40
2019-03-21T19:31:50.065Z,11.40
2019-03-21T19:34:34.818Z,11.30
2019-03-21T19:37:19.950Z,11.30
2019-03-21T19:40:04.740Z,11.30
2019-03-21T19:45:39.127Z,11.20
2019-03-21T19:48:12.956Z,11.20
2019-03-21T19:51:05.919Z,11.10
2019-03-21T19:53:41.825Z,11.00
2019-03-21T19:56:34.330Z,11.00
2019-03-21T19:59:19.358Z,11.10
2019-03-21T20:02:05.142Z,11.10
2019-03-21T20:04:50.162Z,11.10
2019-03-21T20:07:35.153Z,11.10
2019-03-21T20:10:20.481Z,11.10
2019-03-21T20:13:06.966Z,11.10
2019-03-21T20:18:45.809Z,11.10
2019-03-21T20:21:31.352Z,11.10
2019-03-21T20:24:16.531Z,11.00
2019-03-21T20:27:01.359Z,11.10
2019-03-21T20:29:46.905Z,11.00
2019-03-21T20:32:31.657Z,10.80
2019-03-21T20:35:08.401Z,10.80
2019-03-21T20:41:10.409Z,10.80
2019-03-21T20:43:55.280Z,10.90
2019-03-21T20:46:40.152Z,10.80
2019-03-21T20:49:25.371Z,10.90
2019-03-21T20:52:17.785Z,10.80
2019-03-21T20:54:50.584Z,10.80
2019-03-21T20:57:23.572Z,10.80
2019-03-21T20:59:57.201Z,10.70
2019-03-21T21:02:36.795Z,10.80
2019-03-21T21:08:12.789Z,10.80
2019-03-21T21:10:58.124Z,10.70
2019-03-21T21:13:43.127Z,10.70
2019-03-21T21:16:28.349Z,10.70
2019-03-21T21:19:13.434Z,10.40
2019-03-21T21:21:59.095Z,10.40
2019-03-21T21:24:45.089Z,10.40
2019-03-21T21:27:30.407Z,10.30
2019-03-21T21:30:15.501Z,10.20
2019-03-21T21:32:48.470Z,10.20
2019-03-21T21:35:33.486Z,10.20
2019-03-21T21:38:18.555Z,10.30
2019-03-21T21:40:51.563Z,10.30
2019-03-21T21:43:25.115Z,10.30
2019-03-21T21:46:09.906Z,10.20
2019-03-21T21:48:58.082Z,10.30
2019-03-21T21:51:43.295Z,10.30
2019-03-21T21:54:16.943Z,10.20
2019-03-21T21:56:50.227Z,10.20
2019-03-21T21:59:43.011Z,10.20
2019-03-21T22:02:28.974Z,10.10
2019-03-21T22:05:14.735Z,10.10
2019-03-21T22:08:02.165Z,10.10
2019-03-21T22:10:47.243Z,10.10
2019-03-21T22:13:32.725Z,10.20
2019-03-21T22:16:17.485Z,10.10
2019-03-21T22:19:02.561Z,10.10
2019-03-21T22:21:47.685Z,10.30
2019-03-21T22:24:32.711Z,10.20
2019-03-21T22:27:17.720Z,10.10
2019-03-21T22:30:04.328Z,10.10
2019-03-21T22:32:50.088Z,10.00
2019-03-21T22:35:35.111Z,10.00
2019-03-21T22:38:19.909Z,10.00
2019-03-21T22:41:05.081Z,9.90
2019-03-21T22:43:50.257Z,9.90
2019-03-21T22:46:35.053Z,9.80
2019-03-21T22:49:20.006Z,9.80
2019-03-21T22:52:04.951Z,9.80
2019-03-21T22:54:49.969Z,9.90
2019-03-21T22:57:35.098Z,9.80
2019-03-21T23:00:21.785Z,9.70
2019-03-21T23:03:07.048Z,9.90
2019-03-21T23:05:52.177Z,9.80
2019-03-21T23:08:37.121Z,9.70
2019-03-21T23:11:22.278Z,9.60
2019-03-21T23:14:07.368Z,9.70
2019-03-21T23:16:52.160Z,9.70
2019-03-21T23:19:37.476Z,9.70
2019-03-21T23:22:22.595Z,9.60
2019-03-21T23:25:07.541Z,9.50
2019-03-21T23:27:53.280Z,9.50
2019-03-21T23:30:26.724Z,9.50
2019-03-21T23:33:00.157Z,9.60
2019-03-21T23:35:45.464Z,9.40
2019-03-21T23:38:30.497Z,9.40
2019-03-21T23:41:15.092Z,9.40
2019-03-21T23:44:00.313Z,9.40
2019-03-21T23:46:45.426Z,9.50
2019-03-21T23:49:30.448Z,9.60
2019-03-21T23:52:15.295Z,9.70
2019-03-21T23:55:00.650Z,9.50
2019-03-21T23:57:45.601Z,9.60
